Time;durP1;ratioP1;P1;durP2;ratioP2;P2;SDS_P1;SDS_P2;PMS_P1;PMS_P2;Temp;Humidity;BMP_temperature;BMP_pressure;BME280_temperature;BME280_humidity;BME280_pressure;Samples;Min_cycle;Max_cycle;Signal;HPM_P1;HPM_P2
2023/01/19 00:01:59;;;;;;;4.45;3.03;;;;;;;;;;5062580;28;20049;-71
2023/01/19 00:04:26;;;;;;;5.78;2.38;;;;;;;;;;5067280;28;20075;-70
2023/01/19 00:06:52;;;;;;;3.13;2.40;;;;;;;;;;5067788;28;20041;-71
2023/01/19 00:09:18;;;;;;;3.50;2.80;;;;;;;;;;5068500;28;20049;-70
2023/01/19 00:11:45;;;;;;;2.35;2.10;;;;;;;;;;5065686;28;20128;-70
2023/01/19 00:14:11;;;;;;;2.70;1.83;;;;;;;;;;5067239;28;20045;-71
2023/01/19 00:16:38;;;;;;;2.72;2.25;;;;;;;;;;5065769;28;20511;-69
2023/01/19 00:19:04;;;;;;;5.50;2.58;;;;;;;;;;5069139;28;20060;-70
2023/01/19 00:21:30;;;;;;;3.78;2.10;;;;;;;;;;5066534;28;20045;-70
2023/01/19 00:23:57;;;;;;;6.45;1.63;;;;;;;;;;5066119;28;20360;-70
2023/01/19 00:26:23;;;;;;;1.70;0.93;;;;;;;;;;5067580;28;20045;-70
2023/01/19 00:28:50;;;;;;;2.40;0.60;;;;;;;;;;5067601;28;20045;-72
2023/01/19 00:31:20;;;;;;;6.03;0.65;;;;;;;;;;5066967;28;20056;-70
2023/01/19 00:33:48;;;;;;;0.50;0.50;;;;;;;;;;5067033;28;20057;-71
2023/01/19 00:36:15;;;;;;;1.05;0.60;;;;;;;;;;5065621;28;20205;-67
2023/01/19 00:38:41;;;;;;;0.93;0.60;;;;;;;;;;5067831;28;20514;-71
2023/01/19 00:41:07;;;;;;;0.45;0.45;;;;;;;;;;5065632;28;20079;-69
2023/01/19 00:43:34;;;;;;;1.63;0.70;;;;;;;;;;5067811;28;20565;-71
2023/01/19 00:46:00;;;;;;;2.28;1.10;;;;;;;;;;5066523;28;20049;-70
2023/01/19 00:48:26;;;;;;;3.25;1.38;;;;;;;;;;5065767;28;20049;-69
2023/01/19 00:50:53;;;;;;;1.35;1.25;;;;;;;;;;5066361;28;20056;-71
2023/01/19 00:53:19;;;;;;;2.42;1.50;;;;;;;;;;5065350;28;20519;-71
2023/01/19 00:55:45;;;;;;;4.07;2.55;;;;;;;;;;5062240;28;20057;-69
2023/01/19 00:58:11;;;;;;;3.70;2.40;;;;;;;;;;5066509;28;20503;-70
2023/01/19 01:00:38;;;;;;;3.85;3.05;;;;;;;;;;5067900;28;20511;-70
2023/01/19 01:03:04;;;;;;;6.75;3.83;;;;;;;;;;5065459;28;20076;-68
2023/01/19 01:05:31;;;;;;;6.72;3.85;;;;;;;;;;5066086;28;20053;-73
2023/01/19 01:07:57;;;;;;;9.80;5.03;;;;;;;;;;5066941;28;20041;-70
2023/01/19 01:10:25;;;;;;;7.47;4.53;;;;;;;;;;5065234;28;20061;-69
2023/01/19 01:12:52;;;;;;;9.88;4.97;;;;;;;;;;5065807;28;20056;-70
2023/01/19 01:15:38;;;;;;;10.45;5.80;;;;;;;;;;5066520;28;20057;-70
2023/01/19 01:18:04;;;;;;;15.55;6.50;;;;;;;;;;5066857;28;20475;-70
2023/01/19 01:20:33;;;;;;;11.32;5.82;;;;;;;;;;5053489;28;20864;-70
2023/01/19 01:22:59;;;;;;;12.38;6.85;;;;;;;;;;5061175;28;20049;-70
2023/01/19 01:25:27;;;;;;;12.85;6.13;;;;;;;;;;5066417;28;20056;-68
2023/01/19 01:27:53;;;;;;;9.82;5.57;;;;;;;;;;5067132;28;20144;-71
2023/01/19 01:30:20;;;;;;;10.07;5.90;;;;;;;;;;5065089;28;20095;-71
2023/01/19 01:32:46;;;;;;;9.75;5.63;;;;;;;;;;5065409;28;20138;-70
2023/01/19 01:35:13;;;;;;;6.07;4.63;;;;;;;;;;5065683;28;20073;-69
2023/01/19 01:37:41;;;;;;;5.45;3.53;;;;;;;;;;5067216;28;20041;-71
2023/01/19 01:40:09;;;;;;;7.20;3.53;;;;;;;;;;5067031;28;20174;-69
2023/01/19 01:42:35;;;;;;;5.65;2.78;;;;;;;;;;5066056;28;20568;-69
2023/01/19 01:45:04;;;;;;;4.80;2.35;;;;;;;;;;5064015;28;20128;-69
2023/01/19 01:47:34;;;;;;;2.35;1.30;;;;;;;;;;5065839;28;20048;-71
2023/01/19 01:50:03;;;;;;;4.53;1.48;;;;;;;;;;5066101;28;20587;-69
2023/01/19 01:52:31;;;;;;;2.38;1.95;;;;;;;;;;5066072;28;20486;-71
2023/01/19 01:54:58;;;;;;;4.72;1.77;;;;;;;;;;5065090;28;20107;-71
2023/01/19 01:57:26;;;;;;;2.85;1.65;;;;;;;;;;5064857;28;20053;-71
2023/01/19 01:59:54;;;;;;;1.30;0.70;;;;;;;;;;5065515;28;20380;-69
2023/01/19 02:05:11;;;;;;;0.77;0.75;;;;;;;;;;5063181;28;20053;-72
2023/01/19 02:13:18;;;;;;;0.85;0.68;;;;;;;;;;5065352;28;20051;-71
2023/01/19 02:15:45;;;;;;;2.50;1.02;;;;;;;;;;5065509;28;20748;-72
2023/01/19 02:18:12;;;;;;;4.50;1.02;;;;;;;;;;5065088;28;20052;-72
2023/01/19 02:20:41;;;;;;;1.13;0.43;;;;;;;;;;5066449;28;20053;-72
2023/01/19 02:23:14;;;;;;;2.95;0.60;;;;;;;;;;5065538;28;20131;-72
2023/01/19 02:25:40;;;;;;;3.50;0.60;;;;;;;;;;5064565;28;20056;-71
2023/01/19 02:28:07;;;;;;;1.58;0.60;;;;;;;;;;5060780;28;20053;-70
2023/01/19 02:30:34;;;;;;;3.97;1.00;;;;;;;;;;5065524;28;20488;-69
2023/01/19 02:33:00;;;;;;;1.35;0.65;;;;;;;;;;5065601;28;20049;-71
2023/01/19 02:35:28;;;;;;;3.88;1.88;;;;;;;;;;5065099;28;20052;-71
2023/01/19 02:37:55;;;;;;;6.03;0.70;;;;;;;;;;5065224;28;20057;-71
2023/01/19 02:40:23;;;;;;;7.57;2.15;;;;;;;;;;5063532;28;20075;-70
2023/01/19 02:42:51;;;;;;;7.20;1.20;;;;;;;;;;5060635;28;20081;-71
2023/01/19 02:45:19;;;;;;;6.13;0.80;;;;;;;;;;5063940;28;20065;-69
2023/01/19 02:47:48;;;;;;;4.03;1.15;;;;;;;;;;5063806;28;20498;-71
2023/01/19 02:50:31;;;;;;;5.25;1.45;;;;;;;;;;5065076;28;20726;-71
2023/01/19 02:53:02;;;;;;;3.75;0.90;;;;;;;;;;5063615;28;20133;-71
2023/01/19 02:55:30;;;;;;;10.82;1.20;;;;;;;;;;5064553;28;20572;-72
2023/01/19 02:58:18;;;;;;;5.28;0.70;;;;;;;;;;5065521;28;20060;-71
2023/01/19 03:00:56;;;;;;;7.30;0.70;;;;;;;;;;5049820;28;20089;-69
2023/01/19 03:03:26;;;;;;;2.95;0.60;;;;;;;;;;5066113;28;20790;-71
2023/01/19 03:05:55;;;;;;;3.13;0.68;;;;;;;;;;5062688;28;20057;-71
2023/01/19 03:08:21;;;;;;;7.35;1.02;;;;;;;;;;5062735;28;20045;-69
2023/01/19 03:10:53;;;;;;;2.67;0.77;;;;;;;;;;5069231;28;20128;-71
2023/01/19 03:13:25;;;;;;;1.23;0.60;;;;;;;;;;5069522;28;20552;-70
2023/01/19 03:15:54;;;;;;;0.82;0.60;;;;;;;;;;5066313;28;20115;-72
2023/01/19 03:18:23;;;;;;;4.82;0.70;;;;;;;;;;5068545;28;20111;-71
2023/01/19 03:20:52;;;;;;;4.35;0.50;;;;;;;;;;5066964;28;20053;-70
2023/01/19 03:23:20;;;;;;;1.58;0.77;;;;;;;;;;5068918;28;20128;-69
2023/01/19 03:25:48;;;;;;;5.10;0.93;;;;;;;;;;5067157;28;20049;-71
2023/01/19 03:28:15;;;;;;;0.90;0.43;;;;;;;;;;5067143;28;20045;-70
2023/01/19 03:30:45;;;;;;;2.90;0.60;;;;;;;;;;5068593;28;20080;-71
2023/01/19 03:33:14;;;;;;;3.35;0.50;;;;;;;;;;5067224;28;20076;-70
2023/01/19 03:35:43;;;;;;;3.72;0.70;;;;;;;;;;5064012;28;20055;-71
2023/01/19 03:38:13;;;;;;;6.32;1.02;;;;;;;;;;5068820;28;20508;-71
2023/01/19 03:40:40;;;;;;;4.80;0.85;;;;;;;;;;5069935;28;20145;-72
2023/01/19 03:43:07;;;;;;;5.07;0.70;;;;;;;;;;5068842;28;20521;-69
2023/01/19 03:45:36;;;;;;;4.63;0.55;;;;;;;;;;5068825;28;20057;-71
2023/01/19 03:48:03;;;;;;;2.95;0.55;;;;;;;;;;5066890;28;20506;-71
2023/01/19 03:50:30;;;;;;;6.78;1.15;;;;;;;;;;5066425;28;20064;-71
2023/01/19 03:53:10;;;;;;;5.65;0.95;;;;;;;;;;5067670;28;20534;-71
2023/01/19 03:55:38;;;;;;;4.18;0.38;;;;;;;;;;5059773;28;20131;-72
2023/01/19 03:58:05;;;;;;;3.53;0.63;;;;;;;;;;5068529;28;20057;-68
2023/01/19 04:00:31;;;;;;;2.95;0.80;;;;;;;;;;5058463;28;20052;-71
2023/01/19 04:02:58;;;;;;;5.97;0.80;;;;;;;;;;5068005;28;20053;-70
2023/01/19 04:05:25;;;;;;;3.22;0.63;;;;;;;;;;5068003;28;20068;-69
2023/01/19 04:07:51;;;;;;;7.32;1.27;;;;;;;;;;5069212;28;20523;-71
2023/01/19 04:10:18;;;;;;;4.65;0.82;;;;;;;;;;5068174;28;20136;-71
2023/01/19 04:12:44;;;;;;;3.35;0.90;;;;;;;;;;5065765;28;20106;-70
2023/01/19 04:15:11;;;;;;;2.90;1.13;;;;;;;;;;5067322;28;20076;-71
2023/01/19 04:17:38;;;;;;;2.25;0.90;;;;;;;;;;5067901;28;20533;-72
2023/01/19 04:20:05;;;;;;;4.70;1.00;;;;;;;;;;5067084;28;20049;-72
2023/01/19 04:22:31;;;;;;;2.97;0.60;;;;;;;;;;5067370;28;20452;-70
2023/01/19 04:24:58;;;;;;;8.57;0.88;;;;;;;;;;5066784;28;20057;-71
2023/01/19 04:27:24;;;;;;;5.82;0.90;;;;;;;;;;5066134;28;20055;-72
2023/01/19 04:29:51;;;;;;;7.50;0.98;;;;;;;;;;5067118;28;20130;-72
2023/01/19 04:32:18;;;;;;;1.67;0.60;;;;;;;;;;5066735;28;20068;-71
2023/01/19 04:34:44;;;;;;;3.90;0.80;;;;;;;;;;5068158;28;20056;-71
2023/01/19 04:37:11;;;;;;;2.47;0.60;;;;;;;;;;5066305;28;20053;-71
2023/01/19 04:39:37;;;;;;;4.15;0.85;;;;;;;;;;5067429;28;20060;-72
2023/01/19 04:42:05;;;;;;;2.50;0.73;;;;;;;;;;5067920;28;20048;-70
2023/01/19 04:44:31;;;;;;;7.05;1.10;;;;;;;;;;5067398;28;20517;-69
2023/01/19 04:46:57;;;;;;;3.38;0.93;;;;;;;;;;5066749;28;20061;-69
2023/01/19 04:49:24;;;;;;;3.25;0.70;;;;;;;;;;5067034;28;20056;-71
2023/01/19 04:51:53;;;;;;;3.30;0.60;;;;;;;;;;5067765;28;20060;-69
2023/01/19 04:54:20;;;;;;;2.33;0.60;;;;;;;;;;5066374;28;20057;-71
2023/01/19 04:56:46;;;;;;;1.70;0.70;;;;;;;;;;5066185;28;20053;-71
2023/01/19 04:59:13;;;;;;;4.15;0.88;;;;;;;;;;5067967;28;20053;-70
2023/01/19 05:01:39;;;;;;;7.68;1.40;;;;;;;;;;5064531;28;20057;-71
2023/01/19 05:04:07;;;;;;;12.15;1.02;;;;;;;;;;5066719;28;20060;-71
2023/01/19 05:06:33;;;;;;;3.42;0.73;;;;;;;;;;5066849;28;20140;-71
2023/01/19 05:09:00;;;;;;;1.80;0.70;;;;;;;;;;5067251;28;20120;-71
2023/01/19 05:11:26;;;;;;;10.25;1.10;;;;;;;;;;5067210;28;20056;-71
2023/01/19 05:13:52;;;;;;;4.70;1.88;;;;;;;;;;5066775;28;20558;-71
2023/01/19 05:16:18;;;;;;;2.85;1.05;;;;;;;;;;5067733;28;20060;-69
2023/01/19 05:18:45;;;;;;;6.75;1.17;;;;;;;;;;5067925;28;20073;-71
2023/01/19 05:21:11;;;;;;;7.53;1.27;;;;;;;;;;5069094;28;20570;-71
2023/01/19 05:23:37;;;;;;;10.45;1.38;;;;;;;;;;5065970;28;20056;-69
2023/01/19 05:26:04;;;;;;;9.00;1.17;;;;;;;;;;5066817;28;20053;-71
2023/01/19 05:28:31;;;;;;;6.93;1.27;;;;;;;;;;5067890;28;20143;-71
2023/01/19 05:30:57;;;;;;;7.50;1.10;;;;;;;;;;5066217;28;20057;-70
2023/01/19 05:33:24;;;;;;;9.73;1.55;;;;;;;;;;5066452;28;20041;-69
2023/01/19 05:35:51;;;;;;;10.02;1.63;;;;;;;;;;5067171;28;20049;-70
2023/01/19 05:38:18;;;;;;;6.75;1.70;;;;;;;;;;5067026;28;20135;-71
2023/01/19 05:40:59;;;;;;;8.52;0.90;;;;;;;;;;5063410;28;20597;-71
2023/01/19 05:43:25;;;;;;;13.23;1.60;;;;;;;;;;5067679;28;20049;-70
2023/01/19 05:45:51;;;;;;;12.85;2.05;;;;;;;;;;5066534;28;20049;-71
2023/01/19 05:48:18;;;;;;;10.13;1.95;;;;;;;;;;5065395;28;20056;-69
2023/01/19 05:50:44;;;;;;;12.75;1.55;;;;;;;;;;5060646;28;20682;-69
2023/01/19 05:53:10;;;;;;;7.93;1.77;;;;;;;;;;5061611;28;20534;-70
2023/01/19 05:55:37;;;;;;;7.20;1.63;;;;;;;;;;5065646;28;20056;-70
2023/01/19 05:58:03;;;;;;;9.40;1.48;;;;;;;;;;5065349;28;20061;-70
2023/01/19 06:00:29;;;;;;;10.82;1.17;;;;;;;;;;5065976;28;20056;-69
2023/01/19 06:02:56;;;;;;;13.07;1.80;;;;;;;;;;5065385;28;20056;-68
2023/01/19 06:05:22;;;;;;;10.70;1.98;;;;;;;;;;5064183;28;20111;-71
2023/01/19 06:07:48;;;;;;;9.88;1.48;;;;;;;;;;5066060;28;20044;-70
2023/01/19 06:10:15;;;;;;;6.75;1.85;;;;;;;;;;5064888;28;20127;-69
2023/01/19 06:12:41;;;;;;;7.50;1.70;;;;;;;;;;5065104;28;20081;-69
2023/01/19 06:15:08;;;;;;;6.75;2.05;;;;;;;;;;5065555;28;20045;-70
2023/01/19 06:17:35;;;;;;;6.35;1.65;;;;;;;;;;5066548;28;20510;-69
2023/01/19 06:20:01;;;;;;;9.07;1.13;;;;;;;;;;5066200;28;20053;-70
2023/01/19 06:22:28;;;;;;;11.73;3.55;;;;;;;;;;5064752;28;20511;-70
2023/01/19 06:24:54;;;;;;;6.38;1.33;;;;;;;;;;5067815;28;20080;-69
2023/01/19 06:27:20;;;;;;;10.63;1.88;;;;;;;;;;5068957;28;20057;-70
2023/01/19 06:29:47;;;;;;;8.52;2.15;;;;;;;;;;5064178;28;20064;-70
2023/01/19 06:32:13;;;;;;;9.13;1.77;;;;;;;;;;5066347;28;20053;-70
2023/01/19 06:34:42;;;;;;;6.25;1.80;;;;;;;;;;5066146;28;20530;-69
2023/01/19 06:37:12;;;;;;;11.38;2.10;;;;;;;;;;5063539;28;20067;-70
2023/01/19 06:39:39;;;;;;;9.55;2.30;;;;;;;;;;5064510;28;20073;-70
2023/01/19 06:42:06;;;;;;;3.55;1.20;;;;;;;;;;5074808;28;20060;-70
2023/01/19 06:44:33;;;;;;;8.27;2.17;;;;;;;;;;5065875;28;20087;-68
2023/01/19 06:46:59;;;;;;;13.50;6.30;;;;;;;;;;5061087;28;20053;-70
2023/01/19 06:49:41;;;;;;;18.17;6.85;;;;;;;;;;5058062;28;20122;-69
2023/01/19 06:52:08;;;;;;;11.90;3.67;;;;;;;;;;5076398;28;20051;-70
2023/01/19 06:54:34;;;;;;;17.95;2.20;;;;;;;;;;5065518;28;20049;-68
2023/01/19 06:57:00;;;;;;;11.98;2.17;;;;;;;;;;5064651;28;20139;-70
2023/01/19 06:59:28;;;;;;;14.77;2.05;;;;;;;;;;5044192;28;20337;-71
2023/01/19 07:01:55;;;;;;;9.75;2.40;;;;;;;;;;5055022;28;20052;-70
2023/01/19 07:04:22;;;;;;;10.70;2.15;;;;;;;;;;5062320;28;20057;-70
2023/01/19 07:06:48;;;;;;;8.45;2.40;;;;;;;;;;5059846;28;20057;-68
2023/01/19 07:09:15;;;;;;;17.85;1.90;;;;;;;;;;5061353;28;20500;-70
2023/01/19 07:11:42;;;;;;;11.75;2.10;;;;;;;;;;5061683;28;20614;-73
2023/01/19 07:14:08;;;;;;;5.40;1.20;;;;;;;;;;5062169;28;20068;-70
2023/01/19 07:16:35;;;;;;;5.50;1.90;;;;;;;;;;5070938;28;20649;-68
2023/01/19 07:19:01;;;;;;;14.88;2.90;;;;;;;;;;5069907;28;20049;-70
2023/01/19 07:21:28;;;;;;;10.27;1.90;;;;;;;;;;5069259;28;20064;-70
2023/01/19 07:23:54;;;;;;;17.42;2.05;;;;;;;;;;5061765;28;20419;-70
2023/01/19 07:26:23;;;;;;;8.20;2.08;;;;;;;;;;5060796;28;20053;-69
2023/01/19 07:28:50;;;;;;;13.73;2.13;;;;;;;;;;5059636;28;20143;-70
2023/01/19 07:31:17;;;;;;;15.48;1.83;;;;;;;;;;5061904;28;20057;-70
2023/01/19 07:33:44;;;;;;;10.95;1.92;;;;;;;;;;5062021;28;20499;-69
2023/01/19 07:36:11;;;;;;;10.32;1.77;;;;;;;;;;5060811;28;20053;-69
2023/01/19 07:38:37;;;;;;;11.68;2.53;;;;;;;;;;5066566;28;20095;-69
2023/01/19 07:41:05;;;;;;;11.05;1.85;;;;;;;;;;5062038;28;20053;-69
2023/01/19 07:43:32;;;;;;;8.35;1.88;;;;;;;;;;5070848;28;20060;-69
2023/01/19 07:45:59;;;;;;;14.25;2.17;;;;;;;;;;5060484;28;20049;-69
2023/01/19 07:48:26;;;;;;;12.60;1.88;;;;;;;;;;5062321;28;20450;-69
2023/01/19 07:50:57;;;;;;;17.33;2.38;;;;;;;;;;5059051;28;20227;-69
2023/01/19 07:53:24;;;;;;;30.48;7.85;;;;;;;;;;5060770;28;20483;-71
2023/01/19 07:55:53;;;;;;;31.58;10.10;;;;;;;;;;5059969;28;20060;-67
2023/01/19 07:58:19;;;;;;;26.15;7.38;;;;;;;;;;5072265;28;20098;-68
2023/01/19 08:00:46;;;;;;;12.65;4.53;;;;;;;;;;5063996;28;20515;-71
2023/01/19 08:03:12;;;;;;;20.83;3.15;;;;;;;;;;5065696;28;20107;-67
2023/01/19 08:05:38;;;;;;;13.10;6.03;;;;;;;;;;5064052;28;20060;-70
2023/01/19 08:08:05;;;;;;;14.95;2.88;;;;;;;;;;5064415;28;20140;-68
2023/01/19 08:10:32;;;;;;;11.18;2.42;;;;;;;;;;5064732;28;20073;-68
2023/01/19 08:12:59;;;;;;;17.75;4.00;;;;;;;;;;5063664;28;20056;-68
2023/01/19 08:15:26;;;;;;;18.75;5.65;;;;;;;;;;5063278;28;20056;-69
2023/01/19 08:17:54;;;;;;;16.35;5.95;;;;;;;;;;5061582;28;20049;-70
2023/01/19 08:20:22;;;;;;;17.90;4.63;;;;;;;;;;5061997;28;20561;-68
2023/01/19 08:22:48;;;;;;;18.17;2.83;;;;;;;;;;5069181;28;20048;-68
2023/01/19 08:25:15;;;;;;;12.18;5.07;;;;;;;;;;5062929;28;20226;-69
2023/01/19 08:27:41;;;;;;;11.25;3.15;;;;;;;;;;5064126;28;20056;-69
2023/01/19 08:30:08;;;;;;;31.25;8.15;;;;;;;;;;5063652;28;20056;-67
2023/01/19 08:32:34;;;;;;;19.02;4.85;;;;;;;;;;5059834;28;20218;-69
2023/01/19 08:35:01;;;;;;;12.63;3.97;;;;;;;;;;5064373;28;20049;-70
2023/01/19 08:37:27;;;;;;;15.60;3.70;;;;;;;;;;5061686;28;20531;-70
2023/01/19 08:39:53;;;;;;;15.80;3.00;;;;;;;;;;5063357;28;20065;-68
2023/01/19 08:42:20;;;;;;;14.23;3.00;;;;;;;;;;5061150;28;20139;-70
2023/01/19 08:44:46;;;;;;;11.57;3.55;;;;;;;;;;5063146;28;20045;-69
2023/01/19 08:47:23;;;;;;;17.92;3.17;;;;;;;;;;5060487;28;20570;-70
2023/01/19 08:49:49;;;;;;;17.50;3.55;;;;;;;;;;5062636;28;20057;-69
2023/01/19 08:52:15;;;;;;;11.32;3.88;;;;;;;;;;5063757;28;20506;-70
2023/01/19 08:54:42;;;;;;;14.60;4.70;;;;;;;;;;5064691;28;20143;-69
2023/01/19 08:57:08;;;;;;;13.43;3.05;;;;;;;;;;5065044;28;20053;-68
2023/01/19 08:59:35;;;;;;;11.75;3.88;;;;;;;;;;5063458;28;20049;-69
2023/01/19 09:02:02;;;;;;;11.52;4.10;;;;;;;;;;5063444;28;20057;-69
2023/01/19 09:04:28;;;;;;;8.18;2.58;;;;;;;;;;5061796;28;20081;-68
2023/01/19 09:06:55;;;;;;;11.45;3.40;;;;;;;;;;5061576;28;20148;-68
2023/01/19 09:09:21;;;;;;;8.18;3.03;;;;;;;;;;5060799;28;20176;-70
2023/01/19 09:11:47;;;;;;;9.75;3.28;;;;;;;;;;5069789;28;20055;-69
2023/01/19 09:14:14;;;;;;;11.93;2.65;;;;;;;;;;5056326;28;20049;-68
2023/01/19 09:16:41;;;;;;;13.20;5.47;;;;;;;;;;5060956;28;21707;-68
2023/01/19 09:19:08;;;;;;;8.25;4.07;;;;;;;;;;5060915;28;20132;-70
2023/01/19 09:21:35;;;;;;;15.63;3.75;;;;;;;;;;5062978;28;20053;-69
2023/01/19 09:24:01;;;;;;;11.45;2.42;;;;;;;;;;5061336;28;20483;-68
2023/01/19 09:26:27;;;;;;;13.73;2.67;;;;;;;;;;5060322;28;20061;-70
2023/01/19 09:28:55;;;;;;;17.88;2.85;;;;;;;;;;5060378;28;20056;-70
2023/01/19 09:31:21;;;;;;;9.25;1.58;;;;;;;;;;5063080;28;20057;-70
2023/01/19 09:33:48;;;;;;;11.43;2.17;;;;;;;;;;5067772;28;20053;-69
2023/01/19 09:36:14;;;;;;;10.73;1.70;;;;;;;;;;5079182;28;20079;-68
2023/01/19 09:38:41;;;;;;;8.52;2.28;;;;;;;;;;5057645;28;22254;-69
2023/01/19 09:41:14;;;;;;;10.85;2.72;;;;;;;;;;5064154;28;20076;-71
2023/01/19 09:43:46;;;;;;;12.65;2.17;;;;;;;;;;5065352;28;20514;-70
2023/01/19 09:46:15;;;;;;;9.77;1.92;;;;;;;;;;5064534;28;20049;-71
2023/01/19 09:48:46;;;;;;;12.50;3.13;;;;;;;;;;5060929;28;20053;-70
2023/01/19 09:51:15;;;;;;;13.57;1.60;;;;;;;;;;5066877;28;20125;-71
2023/01/19 09:54:00;;;;;;;10.45;1.77;;;;;;;;;;5064508;28;20057;-71
2023/01/19 09:56:28;;;;;;;10.85;1.35;;;;;;;;;;5065167;28;20049;-70
2023/01/19 09:58:54;;;;;;;7.50;2.28;;;;;;;;;;5061192;28;20561;-69
2023/01/19 10:01:36;;;;;;;14.18;1.90;;;;;;;;;;5058380;28;20135;-71
2023/01/19 10:04:23;;;;;;;6.38;2.08;;;;;;;;;;5061473;28;20111;-71
2023/01/19 10:06:51;;;;;;;4.65;1.33;;;;;;;;;;5073102;28;20049;-71
2023/01/19 10:09:17;;;;;;;5.53;1.38;;;;;;;;;;5062442;28;20126;-69
2023/01/19 10:11:46;;;;;;;9.32;1.50;;;;;;;;;;5073756;28;20048;-68
2023/01/19 10:14:19;;;;;;;;;;;;;;;;;;5061831;28;20049;-71
2023/01/19 10:16:51;;;;;;;8.40;1.42;;;;;;;;;;5062300;28;46589;-69
2023/01/19 10:19:29;;;;;;;9.50;2.08;;;;;;;;;;5061128;28;20067;-72
2023/01/19 10:21:57;;;;;;;16.02;3.95;;;;;;;;;;5062094;28;20204;-70
2023/01/19 10:24:27;;;;;;;6.97;1.73;;;;;;;;;;5060617;28;20052;-71
2023/01/19 10:26:55;;;;;;;4.20;1.20;;;;;;;;;;5064187;28;20056;-70
2023/01/19 10:29:27;;;;;;;5.43;1.55;;;;;;;;;;5060866;28;20056;-69
2023/01/19 10:32:09;;;;;;;7.55;1.70;;;;;;;;;;5062833;28;20044;-68
2023/01/19 10:34:35;;;;;;;10.82;1.20;;;;;;;;;;5063947;28;20049;-72
2023/01/19 10:37:16;;;;;;;7.30;1.38;;;;;;;;;;5061473;28;20079;-71
2023/01/19 10:39:46;;;;;;;6.22;1.45;;;;;;;;;;5063998;28;20049;-70
2023/01/19 10:42:14;;;;;;;4.22;1.25;;;;;;;;;;5062612;28;20488;-69
2023/01/19 10:44:41;;;;;;;3.40;1.38;;;;;;;;;;5063420;28;20045;-69
2023/01/19 10:47:14;;;;;;;3.28;1.52;;;;;;;;;;5080137;28;20055;-70
2023/01/19 10:49:44;;;;;;;2.42;0.88;;;;;;;;;;5063621;28;20059;-69
2023/01/19 10:52:28;;;;;;;11.20;1.83;;;;;;;;;;5061003;28;20577;-71
2023/01/19 10:54:54;;;;;;;6.97;1.52;;;;;;;;;;5058740;28;20053;-70
2023/01/19 10:57:27;;;;;;;6.05;1.02;;;;;;;;;;5064203;28;20053;-71
2023/01/19 10:59:53;;;;;;;4.40;0.98;;;;;;;;;;5062770;28;20555;-70
2023/01/19 11:02:21;;;;;;;13.57;2.10;;;;;;;;;;5061817;28;20099;-70
2023/01/19 11:04:50;;;;;;;4.07;1.05;;;;;;;;;;5062490;28;20108;-71
2023/01/19 11:07:19;;;;;;;8.38;1.15;;;;;;;;;;5072622;28;20445;-71
2023/01/19 11:09:46;;;;;;;3.38;1.20;;;;;;;;;;5062499;28;20137;-71
2023/01/19 11:12:20;;;;;;;3.85;1.30;;;;;;;;;;5076385;28;20045;-66
2023/01/19 11:14:48;;;;;;;5.72;1.33;;;;;;;;;;5062030;28;20052;-71
2023/01/19 11:17:19;;;;;;;9.43;1.20;;;;;;;;;;5061615;28;20049;-71
2023/01/19 11:19:54;;;;;;;6.00;1.25;;;;;;;;;;5061963;28;20127;-70
2023/01/19 11:22:25;;;;;;;3.37;0.80;;;;;;;;;;5063766;28;20550;-69
2023/01/19 11:24:55;;;;;;;4.18;0.60;;;;;;;;;;5043223;28;20050;-72
2023/01/19 11:27:22;;;;;;;9.02;1.20;;;;;;;;;;5058202;28;20063;-67
2023/01/19 11:29:50;;;;;;;3.00;1.02;;;;;;;;;;5069089;28;20132;-68
2023/01/19 11:32:21;;;;;;;6.05;1.73;;;;;;;;;;5071861;28;20457;-71
2023/01/19 11:34:48;;;;;;;4.45;0.93;;;;;;;;;;5066693;28;20045;-72
2023/01/19 11:37:14;;;;;;;2.58;1.02;;;;;;;;;;5080123;28;20057;-71
2023/01/19 11:39:48;;;;;;;2.25;0.60;;;;;;;;;;5064421;28;20056;-73
2023/01/19 11:42:15;;;;;;;7.07;1.23;;;;;;;;;;5065960;28;20095;-69
2023/01/19 11:44:43;;;;;;;4.35;1.02;;;;;;;;;;5066579;28;20489;-69
2023/01/19 11:47:12;;;;;;;2.33;1.15;;;;;;;;;;5066749;28;20049;-70
2023/01/19 11:49:58;;;;;;;7.97;0.93;;;;;;;;;;5065290;28;20087;-69
2023/01/19 11:52:24;;;;;;;;;;;;;;;;;;5060000;28;20140;-72
2023/01/19 11:54:56;;;;;;;6.28;1.95;;;;;;;;;;5064548;28;43372;-71
2023/01/19 11:57:23;;;;;;;3.28;1.20;;;;;;;;;;5065472;28;20060;-70
2023/01/19 11:59:49;;;;;;;6.18;0.85;;;;;;;;;;5063208;28;20060;-72
2023/01/19 12:02:24;;;;;;;2.60;0.95;;;;;;;;;;5063759;28;20514;-72
2023/01/19 12:04:53;;;;;;;2.22;0.85;;;;;;;;;;5063508;28;20115;-72
2023/01/19 12:07:22;;;;;;;4.47;0.80;;;;;;;;;;5065647;28;20052;-72
2023/01/19 12:09:51;;;;;;;3.75;0.73;;;;;;;;;;5064851;28;20131;-73
2023/01/19 12:12:27;;;;;;;5.45;0.88;;;;;;;;;;5077261;28;20045;-72
2023/01/19 12:15:16;;;;;;;2.67;0.82;;;;;;;;;;5071422;28;20510;-72
2023/01/19 12:17:46;;;;;;;2.92;0.77;;;;;;;;;;5065786;28;20057;-72
2023/01/19 12:20:15;;;;;;;2.25;0.80;;;;;;;;;;5066193;28;20053;-69
2023/01/19 12:22:48;;;;;;;7.57;1.38;;;;;;;;;;5065899;28;20053;-71
2023/01/19 12:25:23;;;;;;;7.55;1.67;;;;;;;;;;5067025;28;20049;-70
2023/01/19 12:27:50;;;;;;;2.38;0.90;;;;;;;;;;5060847;28;20048;-73
2023/01/19 12:30:24;;;;;;;3.10;0.85;;;;;;;;;;5065180;28;20053;-73
2023/01/19 12:32:50;;;;;;;3.67;0.82;;;;;;;;;;5065221;28;20099;-73
2023/01/19 12:35:36;;;;;;;3.53;1.60;;;;;;;;;;5066125;28;20048;-69
2023/01/19 12:38:21;;;;;;;1.63;0.73;;;;;;;;;;5066435;28;20057;-71
2023/01/19 12:40:47;;;;;;;4.15;1.02;;;;;;;;;;5060192;28;20045;-70
2023/01/19 12:43:15;;;;;;;5.03;1.20;;;;;;;;;;5058424;28;20049;-68
2023/01/19 12:45:43;;;;;;;3.25;1.15;;;;;;;;;;5063202;28;20061;-72
2023/01/19 12:48:23;;;;;;;5.22;1.02;;;;;;;;;;5064596;28;20053;-72
2023/01/19 12:50:49;;;;;;;13.18;2.58;;;;;;;;;;5065640;28;20057;-69
2023/01/19 12:53:18;;;;;;;7.53;2.20;;;;;;;;;;5067732;28;20064;-73
2023/01/19 12:55:46;;;;;;;5.45;2.65;;;;;;;;;;5062941;28;20512;-70
2023/01/19 12:58:12;;;;;;;6.72;3.88;;;;;;;;;;5063750;28;20052;-69
2023/01/19 13:00:41;;;;;;;6.07;2.00;;;;;;;;;;5064415;28;20511;-71
2023/01/19 13:03:16;;;;;;;3.08;1.13;;;;;;;;;;5081585;28;20064;-72
2023/01/19 13:05:42;;;;;;;7.47;1.52;;;;;;;;;;5071738;28;20480;-71
2023/01/19 13:08:12;;;;;;;6.38;2.03;;;;;;;;;;5064877;28;20110;-71
2023/01/19 13:10:51;;;;;;;3.50;1.10;;;;;;;;;;5064263;28;20052;-73
2023/01/19 13:13:28;;;;;;;3.65;2.05;;;;;;;;;;5064387;28;20052;-72
2023/01/19 13:15:55;;;;;;;10.70;4.90;;;;;;;;;;5064986;28;20493;-72
2023/01/19 13:18:21;;;;;;;29.83;13.15;;;;;;;;;;5069439;28;20118;-72
2023/01/19 13:20:50;;;;;;;15.77;6.88;;;;;;;;;;5063935;28;20053;-73
2023/01/19 13:23:19;;;;;;;8.52;2.00;;;;;;;;;;5067720;28;20121;-72
2023/01/19 13:25:47;;;;;;;3.08;1.90;;;;;;;;;;5060432;28;20049;-69
2023/01/19 13:28:15;;;;;;;3.63;1.35;;;;;;;;;;5062720;28;20072;-72
2023/01/19 13:30:51;;;;;;;16.65;2.70;;;;;;;;;;5063436;28;20124;-72
2023/01/19 13:33:20;;;;;;;3.25;1.10;;;;;;;;;;5063112;28;20053;-72
2023/01/19 13:35:51;;;;;;;3.08;1.38;;;;;;;;;;5065614;28;20431;-73
2023/01/19 13:38:18;;;;;;;3.63;0.73;;;;;;;;;;5062565;28;20470;-72
2023/01/19 13:40:44;;;;;;;4.32;1.05;;;;;;;;;;5062977;28;20048;-69
2023/01/19 13:43:23;;;;;;;2.17;0.82;;;;;;;;;;5063194;28;20049;-73
2023/01/19 13:45:49;;;;;;;3.05;0.70;;;;;;;;;;5062848;28;20093;-70
2023/01/19 13:48:21;;;;;;;5.90;1.13;;;;;;;;;;5061628;28;20060;-73
2023/01/19 13:51:01;;;;;;;2.85;0.70;;;;;;;;;;5061884;28;20530;-69
2023/01/19 13:53:29;;;;;;;5.95;0.80;;;;;;;;;;5061153;28;20057;-69
2023/01/19 13:56:05;;;;;;;4.32;1.02;;;;;;;;;;5072432;28;20049;-73
2023/01/19 13:58:32;;;;;;;2.15;0.90;;;;;;;;;;5066391;28;20049;-72
2023/01/19 14:00:58;;;;;;;1.15;0.60;;;;;;;;;;5078688;28;20051;-72
2023/01/19 14:03:25;;;;;;;3.53;0.90;;;;;;;;;;5065739;28;20533;-72
2023/01/19 14:05:52;;;;;;;4.03;0.98;;;;;;;;;;5066349;28;20061;-69
2023/01/19 14:08:20;;;;;;;3.22;0.60;;;;;;;;;;5062862;28;20064;-71
2023/01/19 14:10:53;;;;;;;3.03;0.75;;;;;;;;;;5066592;28;20053;-73
2023/01/19 14:13:21;;;;;;;3.38;0.55;;;;;;;;;;5075299;28;20128;-71
2023/01/19 14:15:48;;;;;;;6.10;1.10;;;;;;;;;;5073739;28;20056;-72
2023/01/19 14:18:15;;;;;;;15.02;1.40;;;;;;;;;;5061174;28;20056;-72
2023/01/19 14:21:01;;;;;;;2.63;0.82;;;;;;;;;;5059201;28;20145;-71
2023/01/19 14:23:40;;;;;;;2.30;0.88;;;;;;;;;;5062788;28;20443;-72
2023/01/19 14:26:26;;;;;;;1.33;0.73;;;;;;;;;;5061650;28;20060;-71
2023/01/19 14:28:52;;;;;;;3.70;0.98;;;;;;;;;;5064859;28;20041;-70
2023/01/19 14:31:20;;;;;;;5.28;0.85;;;;;;;;;;5063564;28;20049;-71
2023/01/19 14:33:48;;;;;;;4.70;0.88;;;;;;;;;;5065463;28;20049;-72
2023/01/19 14:36:20;;;;;;;3.42;0.90;;;;;;;;;;5058765;28;20424;-72
2023/01/19 14:38:48;;;;;;;2.40;0.70;;;;;;;;;;5061681;28;20071;-72
2023/01/19 14:41:41;;;;;;;2.70;0.90;;;;;;;;;;5065139;28;20140;-69
2023/01/19 14:44:15;;;;;;;3.08;1.00;;;;;;;;;;5066955;28;20564;-70
2023/01/19 14:46:48;;;;;;;7.10;1.20;;;;;;;;;;5055552;28;20060;-73
2023/01/19 14:49:19;;;;;;;1.83;0.90;;;;;;;;;;5068540;28;20128;-70
2023/01/19 14:51:46;;;;;;;1.52;0.75;;;;;;;;;;5058869;28;20153;-73
2023/01/19 14:54:16;;;;;;;5.57;2.42;;;;;;;;;;5062949;28;20083;-68
2023/01/19 14:56:43;;;;;;;1.52;0.88;;;;;;;;;;5063778;28;20108;-70
2023/01/19 14:59:12;;;;;;;3.45;1.08;;;;;;;;;;5060763;28;20561;-69